DESTH EDFM-EDGS
Flight info
| Callsign | DESTH |
|---|---|
| Flight time | 0h 50m |
| Altitude | 8000 |
| Route | FKS DCT TAU |
| Aircraft | PA24/L-SDGRY/S |
Departure
| Time | 2026-04-19 09:35 |
|---|---|
| Airport | Mannheim-City Airport (EDFM) |
Arrival
| Time | 2026-04-19 10:26 |
|---|---|
| Airport | Siegerland Airport (EDGS) |
| Time | Latitude | Longitude | Altitude | Speed | Heading |
|---|---|---|---|---|---|
| 2026-04-19 09:35 | 49.40315 | 8.38159 | 8173 ft | 142 kts | 89° |
| 2026-04-19 09:35 | 49.40615 | 8.39608 | 8197 ft | 146 kts | 54° |
| 2026-04-19 09:36 | 49.41179 | 8.40913 | 8203 ft | 148 kts | 48° |
| 2026-04-19 09:36 | 49.41771 | 8.42223 | 8204 ft | 151 kts | 47° |
| 2026-04-19 09:36 | 49.42383 | 8.43550 | 8196 ft | 154 kts | 47° |
| 2026-04-19 09:36 | 49.43017 | 8.44892 | 8235 ft | 156 kts | 43° |
| 2026-04-19 09:37 | 49.43925 | 8.45714 | 8251 ft | 150 kts | 1° |
| 2026-04-19 09:37 | 49.44887 | 8.45481 | 8252 ft | 137 kts | 322° |
| 2026-04-19 09:37 | 49.45590 | 8.44567 | 8250 ft | 129 kts | 310° |
| 2026-04-19 09:37 | 49.46216 | 8.43617 | 8296 ft | 119 kts | 308° |
| 2026-04-19 09:38 | 49.46783 | 8.42761 | 8429 ft | 115 kts | 308° |
| 2026-04-19 09:38 | 49.47370 | 8.41866 | 8422 ft | 123 kts | 308° |
| 2026-04-19 09:38 | 49.47982 | 8.40919 | 8414 ft | 127 kts | 308° |
| 2026-04-19 09:38 | 49.48609 | 8.39937 | 8415 ft | 130 kts | 308° |
| 2026-04-19 09:39 | 49.49241 | 8.38936 | 8419 ft | 131 kts | 308° |
| 2026-04-19 09:39 | 49.49879 | 8.37922 | 8396 ft | 133 kts | 308° |
| 2026-04-19 09:39 | 49.50525 | 8.36900 | 8401 ft | 133 kts | 308° |
| 2026-04-19 09:39 | 49.51154 | 8.35897 | 8387 ft | 129 kts | 308° |
| 2026-04-19 09:40 | 49.51781 | 8.34903 | 8400 ft | 130 kts | 308° |
| 2026-04-19 09:40 | 49.52400 | 8.33926 | 8392 ft | 120 kts | 308° |
| 2026-04-19 09:40 | 49.52923 | 8.33122 | 8386 ft | 107 kts | 308° |
| 2026-04-19 09:40 | 49.53469 | 8.32255 | 8413 ft | 116 kts | 302° |
| 2026-04-19 09:41 | 49.53922 | 8.31221 | 8422 ft | 120 kts | 297° |
| 2026-04-19 09:41 | 49.54361 | 8.30101 | 8427 ft | 124 kts | 297° |
| 2026-04-19 09:41 | 49.54809 | 8.28940 | 8417 ft | 128 kts | 296° |
| 2026-04-19 09:41 | 49.55263 | 8.27751 | 8411 ft | 129 kts | 296° |
| 2026-04-19 09:42 | 49.55716 | 8.26550 | 8413 ft | 130 kts | 296° |
| 2026-04-19 09:42 | 49.56172 | 8.25344 | 8413 ft | 130 kts | 296° |
| 2026-04-19 09:42 | 49.56628 | 8.24133 | 8413 ft | 130 kts | 296° |
| 2026-04-19 09:42 | 49.57082 | 8.22927 | 8412 ft | 131 kts | 296° |
| 2026-04-19 09:43 | 49.57466 | 8.21658 | 8415 ft | 131 kts | 283° |
| 2026-04-19 09:43 | 49.57686 | 8.20301 | 8412 ft | 131 kts | 282° |
| 2026-04-19 09:43 | 49.57895 | 8.18940 | 8411 ft | 130 kts | 282° |
| 2026-04-19 09:43 | 49.58101 | 8.17590 | 8411 ft | 129 kts | 282° |
| 2026-04-19 09:44 | 49.58304 | 8.16238 | 8415 ft | 129 kts | 282° |
| 2026-04-19 09:44 | 49.58504 | 8.14903 | 8413 ft | 127 kts | 282° |
| 2026-04-19 09:44 | 49.58703 | 8.13579 | 8414 ft | 128 kts | 282° |
| 2026-04-19 09:44 | 49.58901 | 8.12240 | 8414 ft | 128 kts | 282° |
| 2026-04-19 09:45 | 49.59099 | 8.10900 | 8414 ft | 128 kts | 282° |
| 2026-04-19 09:45 | 49.59279 | 8.09541 | 8417 ft | 131 kts | 281° |
| 2026-04-19 09:45 | 49.59375 | 8.08148 | 8422 ft | 131 kts | 272° |
| 2026-04-19 09:45 | 49.59373 | 8.06727 | 8281 ft | 142 kts | 273° |
| 2026-04-19 09:46 | 49.59471 | 8.05194 | 8153 ft | 146 kts | 285° |
| 2026-04-19 09:46 | 49.59861 | 8.03852 | 8237 ft | 136 kts | 303° |
| 2026-04-19 09:46 | 49.60499 | 8.02769 | 8211 ft | 137 kts | 313° |
| 2026-04-19 09:46 | 49.61250 | 8.01865 | 8205 ft | 137 kts | 324° |
| 2026-04-19 09:47 | 49.62133 | 8.01309 | 8206 ft | 139 kts | 339° |
| 2026-04-19 09:47 | 49.63080 | 8.00985 | 8206 ft | 140 kts | 343° |
| 2026-04-19 09:47 | 49.64056 | 8.00846 | 8191 ft | 142 kts | 353° |
| 2026-04-19 09:47 | 49.65053 | 8.01008 | 8190 ft | 145 kts | 359° |
| 2026-04-19 09:48 | 49.66054 | 8.01245 | 8243 ft | 143 kts | 2° |
| 2026-04-19 09:48 | 49.67015 | 8.01542 | 8393 ft | 141 kts | 3° |
| 2026-04-19 09:48 | 49.67966 | 8.01871 | 8546 ft | 139 kts | 4° |
| 2026-04-19 09:48 | 49.68902 | 8.02207 | 8706 ft | 137 kts | 3° |
| 2026-04-19 09:49 | 49.69844 | 8.02521 | 8843 ft | 137 kts | 2° |
| 2026-04-19 09:49 | 49.70739 | 8.02796 | 9140 ft | 127 kts | 1° |
| 2026-04-19 09:49 | 49.71632 | 8.03042 | 9162 ft | 133 kts | 359° |
| 2026-04-19 09:49 | 49.72542 | 8.03259 | 9172 ft | 133 kts | 358° |
| 2026-04-19 09:50 | 49.73459 | 8.03454 | 9189 ft | 134 kts | 357° |
| 2026-04-19 09:50 | 49.74386 | 8.03632 | 9189 ft | 135 kts | 357° |
| 2026-04-19 09:50 | 49.75326 | 8.03805 | 9188 ft | 137 kts | 357° |
| 2026-04-19 09:50 | 49.76272 | 8.03983 | 9187 ft | 137 kts | 357° |
| 2026-04-19 09:51 | 49.77223 | 8.04170 | 9182 ft | 138 kts | 358° |
| 2026-04-19 09:51 | 49.78161 | 8.04373 | 9185 ft | 138 kts | 359° |
| 2026-04-19 09:51 | 49.79114 | 8.04601 | 9184 ft | 139 kts | 360° |
| 2026-04-19 09:51 | 49.80065 | 8.04850 | 9181 ft | 138 kts | 0° |
| 2026-04-19 09:52 | 49.81003 | 8.05118 | 9179 ft | 136 kts | 1° |
| 2026-04-19 09:52 | 49.81928 | 8.05399 | 9179 ft | 135 kts | 1° |
| 2026-04-19 09:52 | 49.82847 | 8.05674 | 9181 ft | 134 kts | 1° |
| 2026-04-19 09:52 | 49.83764 | 8.05936 | 9182 ft | 134 kts | 0° |
| 2026-04-19 09:53 | 49.84677 | 8.06185 | 9181 ft | 133 kts | 360° |
| 2026-04-19 09:53 | 49.85584 | 8.06417 | 9182 ft | 132 kts | 359° |
| 2026-04-19 09:53 | 49.86486 | 8.06633 | 9182 ft | 131 kts | 359° |
| 2026-04-19 09:53 | 49.87383 | 8.06839 | 9183 ft | 131 kts | 358° |
| 2026-04-19 09:54 | 49.88296 | 8.07034 | 9190 ft | 135 kts | 358° |
| 2026-04-19 09:54 | 49.89237 | 8.07227 | 9195 ft | 138 kts | 358° |
| 2026-04-19 09:54 | 49.90195 | 8.07429 | 9201 ft | 140 kts | 359° |
| 2026-04-19 09:54 | 49.91166 | 8.07648 | 9193 ft | 142 kts | 359° |
| 2026-04-19 09:55 | 49.92139 | 8.07874 | 9194 ft | 141 kts | 360° |
| 2026-04-19 09:55 | 49.93109 | 8.08102 | 9188 ft | 142 kts | 0° |
| 2026-04-19 09:55 | 49.94084 | 8.08350 | 9187 ft | 143 kts | 1° |
| 2026-04-19 09:55 | 49.95065 | 8.08626 | 9186 ft | 144 kts | 2° |
| 2026-04-19 09:56 | 49.96049 | 8.08911 | 9186 ft | 144 kts | 2° |
| 2026-04-19 09:56 | 49.97035 | 8.09195 | 9185 ft | 144 kts | 2° |
| 2026-04-19 09:56 | 49.98018 | 8.09474 | 9184 ft | 143 kts | 2° |
| 2026-04-19 09:56 | 49.99000 | 8.09746 | 9185 ft | 143 kts | 1° |
| 2026-04-19 09:57 | 49.99983 | 8.10002 | 9184 ft | 143 kts | 1° |
| 2026-04-19 09:57 | 50.00961 | 8.10245 | 9184 ft | 142 kts | 0° |
| 2026-04-19 09:57 | 50.01943 | 8.10473 | 9184 ft | 142 kts | 0° |
| 2026-04-19 09:57 | 50.02921 | 8.10692 | 9184 ft | 142 kts | 360° |
| 2026-04-19 09:58 | 50.03882 | 8.10906 | 9184 ft | 141 kts | 360° |
| 2026-04-19 09:58 | 50.04857 | 8.11121 | 9184 ft | 141 kts | 0° |
| 2026-04-19 09:58 | 50.05827 | 8.11343 | 9183 ft | 141 kts | 0° |
| 2026-04-19 09:58 | 50.06801 | 8.11582 | 9184 ft | 141 kts | 1° |
| 2026-04-19 09:59 | 50.07772 | 8.11837 | 9184 ft | 142 kts | 1° |
| 2026-04-19 09:59 | 50.08743 | 8.12103 | 9184 ft | 142 kts | 1° |
| 2026-04-19 09:59 | 50.09713 | 8.12369 | 9184 ft | 142 kts | 1° |
| 2026-04-19 09:59 | 50.10687 | 8.12633 | 9185 ft | 143 kts | 1° |
| 2026-04-19 10:00 | 50.11665 | 8.12896 | 9184 ft | 143 kts | 1° |
| 2026-04-19 10:00 | 50.12642 | 8.13156 | 9185 ft | 142 kts | 1° |
| 2026-04-19 10:00 | 50.13289 | 8.13324 | 9186 ft | 142 kts | 1° |
| 2026-04-19 10:00 | 50.14261 | 8.13559 | 9191 ft | 140 kts | 0° |
| 2026-04-19 10:01 | 50.15223 | 8.13778 | 9188 ft | 140 kts | 1° |
| 2026-04-19 10:01 | 50.16186 | 8.14002 | 9184 ft | 140 kts | 1° |
| 2026-04-19 10:01 | 50.17145 | 8.14229 | 9183 ft | 139 kts | 1° |
| 2026-04-19 10:01 | 50.18104 | 8.14477 | 9181 ft | 139 kts | 2° |
| 2026-04-19 10:02 | 50.19013 | 8.15002 | 9185 ft | 141 kts | 16° |
| 2026-04-19 10:02 | 50.19911 | 8.15657 | 9185 ft | 143 kts | 16° |
| 2026-04-19 10:02 | 50.20818 | 8.16317 | 9186 ft | 144 kts | 17° |
| 2026-04-19 10:02 | 50.21729 | 8.16981 | 9185 ft | 144 kts | 17° |
| 2026-04-19 10:03 | 50.22637 | 8.17649 | 9185 ft | 144 kts | 17° |
| 2026-04-19 10:03 | 50.23548 | 8.18319 | 9186 ft | 145 kts | 17° |
| 2026-04-19 10:03 | 50.24458 | 8.18986 | 9185 ft | 145 kts | 16° |
| 2026-04-19 10:03 | 50.25369 | 8.19655 | 9185 ft | 145 kts | 17° |
| 2026-04-19 10:04 | 50.26270 | 8.20308 | 9185 ft | 145 kts | 16° |
| 2026-04-19 10:04 | 50.27184 | 8.20967 | 9185 ft | 145 kts | 16° |
| 2026-04-19 10:04 | 50.28098 | 8.21630 | 9185 ft | 145 kts | 16° |
| 2026-04-19 10:04 | 50.29014 | 8.22286 | 9185 ft | 145 kts | 16° |
| 2026-04-19 10:05 | 50.29933 | 8.22943 | 9185 ft | 146 kts | 16° |
| 2026-04-19 10:05 | 50.30850 | 8.23595 | 9185 ft | 145 kts | 16° |
| 2026-04-19 10:05 | 50.31769 | 8.24259 | 9185 ft | 145 kts | 16° |
| 2026-04-19 10:05 | 50.32685 | 8.24917 | 9185 ft | 145 kts | 16° |
| 2026-04-19 10:06 | 50.33601 | 8.25574 | 9185 ft | 145 kts | 16° |
| 2026-04-19 10:06 | 50.34523 | 8.26224 | 9186 ft | 145 kts | 16° |
| 2026-04-19 10:06 | 50.35440 | 8.26879 | 9189 ft | 145 kts | 16° |
| 2026-04-19 10:06 | 50.36362 | 8.27513 | 9189 ft | 144 kts | 16° |
| 2026-04-19 10:07 | 50.37283 | 8.28133 | 9186 ft | 144 kts | 16° |
| 2026-04-19 10:07 | 50.38207 | 8.28742 | 9186 ft | 144 kts | 15° |
| 2026-04-19 10:07 | 50.39186 | 8.28906 | 9186 ft | 142 kts | 345° |
| 2026-04-19 10:07 | 50.40057 | 8.28599 | 9150 ft | 114 kts | 338° |
| 2026-04-19 10:08 | 50.40609 | 8.27736 | 8612 ft | 120 kts | 290° |
| 2026-04-19 10:08 | 50.40638 | 8.26391 | 8224 ft | 127 kts | 262° |
| 2026-04-19 10:08 | 50.40085 | 8.25511 | 8142 ft | 118 kts | 199° |
| 2026-04-19 10:08 | 50.39319 | 8.25936 | 7890 ft | 128 kts | 133° |
| 2026-04-19 10:09 | 50.39136 | 8.27179 | 7744 ft | 117 kts | 64° |
| 2026-04-19 10:09 | 50.39691 | 8.27893 | 7610 ft | 96 kts | 356° |
| 2026-04-19 10:09 | 50.40212 | 8.27350 | 7319 ft | 102 kts | 292° |
| 2026-04-19 10:09 | 50.40109 | 8.26188 | 6905 ft | 122 kts | 246° |
| 2026-04-19 10:10 | 50.39282 | 8.25527 | 6224 ft | 158 kts | 182° |
| 2026-04-19 10:10 | 50.38344 | 8.26347 | 5796 ft | 160 kts | 122° |
| 2026-04-19 10:10 | 50.38079 | 8.27994 | 5386 ft | 151 kts | 76° |
| 2026-04-19 10:10 | 50.38501 | 8.29413 | 4929 ft | 143 kts | 43° |
| 2026-04-19 10:11 | 50.39253 | 8.30191 | 4698 ft | 124 kts | 1° |
| 2026-04-19 10:11 | 50.40001 | 8.29752 | 4383 ft | 117 kts | 315° |
| 2026-04-19 10:11 | 50.40387 | 8.28598 | 4071 ft | 122 kts | 296° |
| 2026-04-19 10:11 | 50.40810 | 8.27491 | 3898 ft | 117 kts | 318° |
| 2026-04-19 10:12 | 50.41464 | 8.26818 | 3741 ft | 111 kts | 339° |
| 2026-04-19 10:12 | 50.42207 | 8.26530 | 3572 ft | 109 kts | 349° |
| 2026-04-19 10:12 | 50.42933 | 8.26284 | 3452 ft | 105 kts | 343° |
| 2026-04-19 10:12 | 50.43625 | 8.26010 | 3372 ft | 101 kts | 345° |
| 2026-04-19 10:13 | 50.44290 | 8.25729 | 3378 ft | 96 kts | 345° |
| 2026-04-19 10:13 | 50.44911 | 8.25455 | 3440 ft | 91 kts | 336° |
| 2026-04-19 10:13 | 50.45518 | 8.25058 | 3360 ft | 98 kts | 338° |
| 2026-04-19 10:13 | 50.46171 | 8.24671 | 3311 ft | 103 kts | 339° |
| 2026-04-19 10:14 | 50.46836 | 8.24292 | 3329 ft | 101 kts | 339° |
| 2026-04-19 10:14 | 50.47499 | 8.23910 | 3336 ft | 101 kts | 339° |
| 2026-04-19 10:14 | 50.48159 | 8.23534 | 3338 ft | 101 kts | 339° |
| 2026-04-19 10:14 | 50.48817 | 8.23162 | 3338 ft | 100 kts | 339° |
| 2026-04-19 10:15 | 50.49483 | 8.22776 | 3346 ft | 104 kts | 339° |
| 2026-04-19 10:15 | 50.49704 | 8.22650 | 3348 ft | 105 kts | 339° |
| 2026-04-19 10:15 | 50.49871 | 8.22555 | 3349 ft | 105 kts | 339° |
| 2026-04-19 10:15 | 50.50573 | 8.22154 | 3353 ft | 108 kts | 339° |
| 2026-04-19 10:16 | 50.51289 | 8.21749 | 3363 ft | 110 kts | 339° |
| 2026-04-19 10:16 | 50.52023 | 8.21322 | 3358 ft | 115 kts | 339° |
| 2026-04-19 10:16 | 50.52773 | 8.20880 | 3350 ft | 118 kts | 339° |
| 2026-04-19 10:16 | 50.53545 | 8.20427 | 3344 ft | 115 kts | 339° |
| 2026-04-19 10:17 | 50.54286 | 8.19974 | 3343 ft | 117 kts | 339° |
| 2026-04-19 10:17 | 50.55042 | 8.19521 | 3347 ft | 115 kts | 339° |
| 2026-04-19 10:17 | 50.55794 | 8.19062 | 3346 ft | 115 kts | 339° |
| 2026-04-19 10:17 | 50.56525 | 8.18583 | 3346 ft | 114 kts | 331° |
| 2026-04-19 10:18 | 50.57183 | 8.17901 | 3340 ft | 112 kts | 328° |
| 2026-04-19 10:18 | 50.57820 | 8.17194 | 3345 ft | 113 kts | 327° |
| 2026-04-19 10:18 | 50.58457 | 8.16480 | 3346 ft | 112 kts | 327° |
| 2026-04-19 10:19 | 50.59727 | 8.15056 | 3345 ft | 114 kts | 326° |
| 2026-04-19 10:19 | 50.60381 | 8.14359 | 3346 ft | 114 kts | 326° |
| 2026-04-19 10:19 | 50.61052 | 8.13652 | 3346 ft | 118 kts | 327° |
| 2026-04-19 10:19 | 50.61740 | 8.12929 | 3346 ft | 119 kts | 326° |
| 2026-04-19 10:20 | 50.62420 | 8.12221 | 3345 ft | 117 kts | 326° |
| 2026-04-19 10:20 | 50.63086 | 8.11514 | 3333 ft | 116 kts | 326° |
| 2026-04-19 10:20 | 50.63763 | 8.10805 | 3332 ft | 117 kts | 326° |
| 2026-04-19 10:20 | 50.64415 | 8.10108 | 3333 ft | 112 kts | 326° |
| 2026-04-19 10:21 | 50.65069 | 8.09410 | 3334 ft | 115 kts | 326° |
| 2026-04-19 10:21 | 50.65723 | 8.08704 | 3333 ft | 114 kts | 327° |
| 2026-04-19 10:21 | 50.66391 | 8.07991 | 3334 ft | 116 kts | 326° |
| 2026-04-19 10:21 | 50.67044 | 8.07289 | 3331 ft | 114 kts | 326° |
| 2026-04-19 10:22 | 50.67702 | 8.06586 | 3330 ft | 115 kts | 326° |
| 2026-04-19 10:22 | 50.68407 | 8.06014 | 3314 ft | 118 kts | 353° |
| 2026-04-19 10:22 | 50.69171 | 8.06406 | 3305 ft | 119 kts | 26° |
| 2026-04-19 10:22 | 50.69727 | 8.07313 | 3110 ft | 128 kts | 77° |
| 2026-04-19 10:23 | 50.69199 | 8.08423 | 3138 ft | 135 kts | 148° |
| 2026-04-19 10:23 | 50.68446 | 8.09370 | 3163 ft | 141 kts | 127° |
| 2026-04-19 10:23 | 50.67918 | 8.10672 | 3188 ft | 134 kts | 116° |
| 2026-04-19 10:23 | 50.67553 | 8.12000 | 2992 ft | 134 kts | 86° |
| 2026-04-19 10:24 | 50.67954 | 8.13136 | 2891 ft | 100 kts | 25° |
| 2026-04-19 10:24 | 50.68505 | 8.13103 | 2805 ft | 76 kts | 318° |
| 2026-04-19 10:24 | 50.68738 | 8.12357 | 2640 ft | 76 kts | 300° |
| 2026-04-19 10:24 | 50.69023 | 8.11693 | 2519 ft | 75 kts | 317° |
| 2026-04-19 10:25 | 50.69336 | 8.11132 | 2331 ft | 61 kts | 313° |
| 2026-04-19 10:25 | 50.69560 | 8.10637 | 2240 ft | 55 kts | 315° |
| 2026-04-19 10:25 | 50.69809 | 8.10210 | 2221 ft | 50 kts | 317° |
| 2026-04-19 10:25 | 50.70033 | 8.09760 | 2128 ft | 53 kts | 319° |
| 2026-04-19 10:26 | 50.70277 | 8.09273 | 2039 ft | 58 kts | 314° |
| 2026-04-19 10:26 | 50.70501 | 8.08815 | 1961 ft | 42 kts | 319° |
| 2026-04-19 10:26 | 50.70636 | 8.08564 | 1957 ft | 27 kts | 310° |
| 2026-04-19 10:26 | 50.70713 | 8.08354 | 1957 ft | 18 kts | 277° |
| 2026-04-19 10:27 | 50.70727 | 8.08154 | 1958 ft | 19 kts | 266° |
| 2026-04-19 10:27 | 50.70698 | 8.08005 | 1958 ft | 17 kts | 314° |
| 2026-04-19 10:27 | 50.70767 | 8.07871 | 1958 ft | 12 kts | 303° |
| 2026-04-19 10:27 | 50.70757 | 8.07779 | 1958 ft | 7 kts | 264° |
| 2026-04-19 10:28 | 50.70750 | 8.07746 | 1958 ft | 1 kts | 121° |
| 2026-04-19 10:28 | 50.70750 | 8.07752 | 1958 ft | 0 kts | 64° |
| 2026-04-19 10:29 | 50.70749 | 8.07749 | 1958 ft | 1 kts | 72° |
| 2026-04-19 10:29 | 50.70748 | 8.07747 | 1958 ft | 0 kts | 46° |